sensor_id;sensor_type;location;lat;lon;timestamp;P1;durP1;ratioP1;P2;durP2;ratioP2
35887;SDS011;21990;42.540;23.496;2023-01-13T00:01:08;7.95;;;5.55;;
35887;SDS011;21990;42.540;23.496;2023-01-13T00:03:39;15.95;;;5.72;;
35887;SDS011;21990;42.540;23.496;2023-01-13T00:06:05;9.98;;;6.15;;
35887;SDS011;21990;42.540;23.496;2023-01-13T00:08:32;8.40;;;5.53;;
35887;SDS011;21990;42.540;23.496;2023-01-13T00:10:58;8.20;;;5.38;;
35887;SDS011;21990;42.540;23.496;2023-01-13T00:13:24;9.88;;;5.70;;
35887;SDS011;21990;42.540;23.496;2023-01-13T00:15:58;9.02;;;5.63;;
35887;SDS011;21990;42.540;23.496;2023-01-13T00:18:28;10.18;;;5.75;;
35887;SDS011;21990;42.540;23.496;2023-01-13T00:21:00;7.55;;;4.95;;
35887;SDS011;21990;42.540;23.496;2023-01-13T00:23:31;7.05;;;4.95;;
35887;SDS011;21990;42.540;23.496;2023-01-13T00:25:58;8.82;;;5.30;;
35887;SDS011;21990;42.540;23.496;2023-01-13T00:28:26;12.32;;;5.40;;
35887;SDS011;21990;42.540;23.496;2023-01-13T00:30:52;6.90;;;4.75;;
35887;SDS011;21990;42.540;23.496;2023-01-13T00:33:20;6.40;;;4.10;;
35887;SDS011;21990;42.540;23.496;2023-01-13T00:35:54;8.25;;;4.53;;
35887;SDS011;21990;42.540;23.496;2023-01-13T00:38:23;6.07;;;4.00;;
35887;SDS011;21990;42.540;23.496;2023-01-13T00:40:56;6.70;;;4.07;;
35887;SDS011;21990;42.540;23.496;2023-01-13T00:43:32;7.05;;;3.95;;
35887;SDS011;21990;42.540;23.496;2023-01-13T00:45:59;9.02;;;5.03;;
35887;SDS011;21990;42.540;23.496;2023-01-13T00:48:26;6.15;;;4.22;;
35887;SDS011;21990;42.540;23.496;2023-01-13T00:53:29;10.48;;;4.35;;
35887;SDS011;21990;42.540;23.496;2023-01-13T00:55:59;8.45;;;4.90;;
35887;SDS011;21990;42.540;23.496;2023-01-13T00:58:26;7.22;;;4.80;;
35887;SDS011;21990;42.540;23.496;2023-01-13T01:00:52;9.40;;;5.97;;
35887;SDS011;21990;42.540;23.496;2023-01-13T01:03:18;8.13;;;5.25;;
35887;SDS011;21990;42.540;23.496;2023-01-13T01:05:43;11.35;;;5.63;;
35887;SDS011;21990;42.540;23.496;2023-01-13T01:08:09;9.00;;;5.55;;
35887;SDS011;21990;42.540;23.496;2023-01-13T01:10:34;9.65;;;6.18;;
35887;SDS011;21990;42.540;23.496;2023-01-13T01:13:00;12.73;;;6.25;;
35887;SDS011;21990;42.540;23.496;2023-01-13T01:15:25;7.97;;;4.93;;
35887;SDS011;21990;42.540;23.496;2023-01-13T01:17:51;7.25;;;5.18;;
35887;SDS011;21990;42.540;23.496;2023-01-13T01:20:16;7.60;;;5.10;;
35887;SDS011;21990;42.540;23.496;2023-01-13T01:22:42;8.02;;;4.72;;
35887;SDS011;21990;42.540;23.496;2023-01-13T01:25:07;7.22;;;4.60;;
35887;SDS011;21990;42.540;23.496;2023-01-13T01:27:33;7.32;;;4.50;;
35887;SDS011;21990;42.540;23.496;2023-01-13T01:29:59;7.65;;;4.88;;
35887;SDS011;21990;42.540;23.496;2023-01-13T01:32:24;7.55;;;4.78;;
35887;SDS011;21990;42.540;23.496;2023-01-13T01:34:50;7.38;;;4.70;;
35887;SDS011;21990;42.540;23.496;2023-01-13T01:37:16;9.10;;;4.78;;
35887;SDS011;21990;42.540;23.496;2023-01-13T01:39:41;7.45;;;4.80;;
35887;SDS011;21990;42.540;23.496;2023-01-13T01:42:17;6.70;;;4.70;;
35887;SDS011;21990;42.540;23.496;2023-01-13T01:45:02;6.68;;;4.60;;
35887;SDS011;21990;42.540;23.496;2023-01-13T01:47:37;6.55;;;4.55;;
35887;SDS011;21990;42.540;23.496;2023-01-13T01:50:04;8.75;;;5.22;;
35887;SDS011;21990;42.540;23.496;2023-01-13T01:52:34;8.38;;;4.90;;
35887;SDS011;21990;42.540;23.496;2023-01-13T01:55:12;6.55;;;4.78;;
35887;SDS011;21990;42.540;23.496;2023-01-13T01:57:53;7.45;;;4.88;;
35887;SDS011;21990;42.540;23.496;2023-01-13T02:00:31;7.65;;;5.10;;
35887;SDS011;21990;42.540;23.496;2023-01-13T02:02:57;7.57;;;5.30;;
35887;SDS011;21990;42.540;23.496;2023-01-13T02:05:24;7.72;;;5.18;;
35887;SDS011;21990;42.540;23.496;2023-01-13T02:07:51;6.30;;;4.32;;
35887;SDS011;21990;42.540;23.496;2023-01-13T02:10:20;7.25;;;5.10;;
35887;SDS011;21990;42.540;23.496;2023-01-13T02:12:48;7.13;;;4.70;;
35887;SDS011;21990;42.540;23.496;2023-01-13T02:15:20;6.57;;;4.20;;
35887;SDS011;21990;42.540;23.496;2023-01-13T02:27:28;7.07;;;4.82;;
35887;SDS011;21990;42.540;23.496;2023-01-13T02:33:16;7.82;;;4.18;;
35887;SDS011;21990;42.540;23.496;2023-01-13T02:36:52;6.82;;;4.38;;
35887;SDS011;21990;42.540;23.496;2023-01-13T02:39:01;8.35;;;5.35;;
35887;SDS011;21990;42.540;23.496;2023-01-13T02:41:49;7.40;;;5.32;;
35887;SDS011;21990;42.540;23.496;2023-01-13T02:44:47;9.13;;;5.43;;
35887;SDS011;21990;42.540;23.496;2023-01-13T02:47:22;6.88;;;4.80;;
35887;SDS011;21990;42.540;23.496;2023-01-13T02:49:53;8.05;;;5.20;;
35887;SDS011;21990;42.540;23.496;2023-01-13T02:52:28;6.95;;;4.70;;
35887;SDS011;21990;42.540;23.496;2023-01-13T02:55:09;7.13;;;4.72;;
35887;SDS011;21990;42.540;23.496;2023-01-13T02:57:38;6.82;;;4.20;;
35887;SDS011;21990;42.540;23.496;2023-01-13T03:00:06;8.50;;;4.70;;
35887;SDS011;21990;42.540;23.496;2023-01-13T03:02:35;7.78;;;4.68;;
35887;SDS011;21990;42.540;23.496;2023-01-13T03:05:00;6.72;;;4.38;;
35887;SDS011;21990;42.540;23.496;2023-01-13T03:07:36;7.20;;;4.38;;
35887;SDS011;21990;42.540;23.496;2023-01-13T03:10:08;7.38;;;4.70;;
35887;SDS011;21990;42.540;23.496;2023-01-13T03:20:58;7.82;;;4.70;;
35887;SDS011;21990;42.540;23.496;2023-01-13T03:23:39;7.15;;;4.68;;
35887;SDS011;21990;42.540;23.496;2023-01-13T03:26:57;7.28;;;4.50;;
35887;SDS011;21990;42.540;23.496;2023-01-13T03:31:46;9.05;;;5.63;;
35887;SDS011;21990;42.540;23.496;2023-01-13T03:34:20;8.43;;;5.13;;
35887;SDS011;21990;42.540;23.496;2023-01-13T03:36:50;8.63;;;5.07;;
35887;SDS011;21990;42.540;23.496;2023-01-13T03:39:20;7.05;;;4.85;;
35887;SDS011;21990;42.540;23.496;2023-01-13T03:41:59;8.23;;;5.13;;
35887;SDS011;21990;42.540;23.496;2023-01-13T03:44:38;7.13;;;4.68;;
35887;SDS011;21990;42.540;23.496;2023-01-13T03:52:42;7.45;;;4.65;;
35887;SDS011;21990;42.540;23.496;2023-01-13T03:55:15;6.80;;;4.47;;
35887;SDS011;21990;42.540;23.496;2023-01-13T03:57:47;6.78;;;4.88;;
35887;SDS011;21990;42.540;23.496;2023-01-13T04:00:46;7.63;;;5.05;;
35887;SDS011;21990;42.540;23.496;2023-01-13T04:09:06;11.82;;;6.22;;
35887;SDS011;21990;42.540;23.496;2023-01-13T04:11:39;9.15;;;5.57;;
35887;SDS011;21990;42.540;23.496;2023-01-13T04:14:09;12.18;;;6.90;;
35887;SDS011;21990;42.540;23.496;2023-01-13T04:16:39;8.77;;;6.00;;
35887;SDS011;21990;42.540;23.496;2023-01-13T04:19:05;8.68;;;6.03;;
35887;SDS011;21990;42.540;23.496;2023-01-13T04:21:31;9.48;;;5.55;;
35887;SDS011;21990;42.540;23.496;2023-01-13T04:23:58;8.10;;;5.40;;
35887;SDS011;21990;42.540;23.496;2023-01-13T04:26:23;7.90;;;5.00;;
35887;SDS011;21990;42.540;23.496;2023-01-13T04:28:49;6.13;;;4.22;;
35887;SDS011;21990;42.540;23.496;2023-01-13T04:31:16;8.00;;;4.05;;
35887;SDS011;21990;42.540;23.496;2023-01-13T04:33:41;7.80;;;5.10;;
35887;SDS011;21990;42.540;23.496;2023-01-13T04:36:07;7.32;;;5.10;;
35887;SDS011;21990;42.540;23.496;2023-01-13T04:38:33;10.57;;;5.22;;
35887;SDS011;21990;42.540;23.496;2023-01-13T04:40:58;7.80;;;4.82;;
35887;SDS011;21990;42.540;23.496;2023-01-13T04:43:24;12.63;;;4.90;;
35887;SDS011;21990;42.540;23.496;2023-01-13T04:45:49;12.43;;;5.03;;
35887;SDS011;21990;42.540;23.496;2023-01-13T04:48:15;9.00;;;5.20;;
35887;SDS011;21990;42.540;23.496;2023-01-13T04:50:40;7.43;;;4.53;;
35887;SDS011;21990;42.540;23.496;2023-01-13T04:53:06;8.07;;;4.57;;
35887;SDS011;21990;42.540;23.496;2023-01-13T04:55:32;7.38;;;4.82;;
35887;SDS011;21990;42.540;23.496;2023-01-13T04:58:07;6.40;;;4.47;;
35887;SDS011;21990;42.540;23.496;2023-01-13T05:00:34;7.75;;;4.72;;
35887;SDS011;21990;42.540;23.496;2023-01-13T05:03:00;5.63;;;3.90;;
35887;SDS011;21990;42.540;23.496;2023-01-13T05:05:27;7.38;;;4.53;;
35887;SDS011;21990;42.540;23.496;2023-01-13T05:07:53;9.82;;;6.00;;
35887;SDS011;21990;42.540;23.496;2023-01-13T05:10:19;8.00;;;5.10;;
35887;SDS011;21990;42.540;23.496;2023-01-13T05:12:45;9.52;;;4.90;;
35887;SDS011;21990;42.540;23.496;2023-01-13T05:15:29;7.97;;;4.60;;
35887;SDS011;21990;42.540;23.496;2023-01-13T05:18:13;8.88;;;5.32;;
35887;SDS011;21990;42.540;23.496;2023-01-13T05:20:39;8.77;;;5.10;;
35887;SDS011;21990;42.540;23.496;2023-01-13T05:23:05;8.77;;;5.60;;
35887;SDS011;21990;42.540;23.496;2023-01-13T05:25:49;8.05;;;4.93;;
35887;SDS011;21990;42.540;23.496;2023-01-13T05:28:15;10.88;;;6.00;;
35887;SDS011;21990;42.540;23.496;2023-01-13T05:30:42;10.13;;;5.80;;
35887;SDS011;21990;42.540;23.496;2023-01-13T05:33:10;9.35;;;6.13;;
35887;SDS011;21990;42.540;23.496;2023-01-13T05:35:38;9.40;;;5.85;;
35887;SDS011;21990;42.540;23.496;2023-01-13T05:38:08;11.40;;;5.15;;
35887;SDS011;21990;42.540;23.496;2023-01-13T05:40:34;10.18;;;4.95;;
35887;SDS011;21990;42.540;23.496;2023-01-13T05:43:21;6.28;;;4.15;;
35887;SDS011;21990;42.540;23.496;2023-01-13T05:48:17;7.93;;;5.35;;
35887;SDS011;21990;42.540;23.496;2023-01-13T05:50:45;6.82;;;4.85;;
35887;SDS011;21990;42.540;23.496;2023-01-13T05:53:11;6.47;;;4.53;;
35887;SDS011;21990;42.540;23.496;2023-01-13T05:55:38;7.45;;;4.70;;
35887;SDS011;21990;42.540;23.496;2023-01-13T05:58:05;10.13;;;4.53;;
35887;SDS011;21990;42.540;23.496;2023-01-13T06:00:32;7.93;;;5.00;;
35887;SDS011;21990;42.540;23.496;2023-01-13T06:02:57;7.57;;;4.90;;
35887;SDS011;21990;42.540;23.496;2023-01-13T06:05:23;6.30;;;4.13;;
35887;SDS011;21990;42.540;23.496;2023-01-13T06:07:48;6.05;;;3.95;;
35887;SDS011;21990;42.540;23.496;2023-01-13T06:10:15;6.30;;;4.10;;
35887;SDS011;21990;42.540;23.496;2023-01-13T06:12:41;42.60;;;21.05;;
35887;SDS011;21990;42.540;23.496;2023-01-13T06:15:07;42.08;;;21.65;;
35887;SDS011;21990;42.540;23.496;2023-01-13T06:17:32;14.05;;;8.10;;
35887;SDS011;21990;42.540;23.496;2023-01-13T06:19:58;8.90;;;5.65;;
35887;SDS011;21990;42.540;23.496;2023-01-13T06:22:29;9.15;;;5.20;;
35887;SDS011;21990;42.540;23.496;2023-01-13T06:24:57;13.43;;;6.88;;
35887;SDS011;21990;42.540;23.496;2023-01-13T06:27:23;10.65;;;4.70;;
35887;SDS011;21990;42.540;23.496;2023-01-13T06:29:48;8.73;;;4.13;;
35887;SDS011;21990;42.540;23.496;2023-01-13T06:34:46;8.50;;;5.18;;
35887;SDS011;21990;42.540;23.496;2023-01-13T06:37:17;10.02;;;5.57;;
35887;SDS011;21990;42.540;23.496;2023-01-13T06:39:49;10.40;;;5.32;;
35887;SDS011;21990;42.540;23.496;2023-01-13T06:42:15;9.57;;;4.95;;
35887;SDS011;21990;42.540;23.496;2023-01-13T06:44:59;9.52;;;5.57;;
35887;SDS011;21990;42.540;23.496;2023-01-13T06:47:24;14.23;;;4.97;;
35887;SDS011;21990;42.540;23.496;2023-01-13T06:49:50;10.32;;;5.97;;
35887;SDS011;21990;42.540;23.496;2023-01-13T06:52:15;10.68;;;5.25;;
35887;SDS011;21990;42.540;23.496;2023-01-13T06:54:41;8.10;;;4.78;;
35887;SDS011;21990;42.540;23.496;2023-01-13T06:57:06;8.98;;;4.40;;
35887;SDS011;21990;42.540;23.496;2023-01-13T06:59:32;7.72;;;4.55;;
35887;SDS011;21990;42.540;23.496;2023-01-13T07:02:00;15.60;;;10.32;;
35887;SDS011;21990;42.540;23.496;2023-01-13T07:04:26;5.22;;;3.42;;
35887;SDS011;21990;42.540;23.496;2023-01-13T07:06:52;5.10;;;3.35;;
35887;SDS011;21990;42.540;23.496;2023-01-13T07:09:17;4.82;;;3.38;;
35887;SDS011;21990;42.540;23.496;2023-01-13T07:11:43;6.63;;;4.45;;
35887;SDS011;21990;42.540;23.496;2023-01-13T07:14:09;9.00;;;5.53;;
35887;SDS011;21990;42.540;23.496;2023-01-13T07:16:52;7.50;;;5.32;;
35887;SDS011;21990;42.540;23.496;2023-01-13T07:19:18;8.30;;;5.88;;
35887;SDS011;21990;42.540;23.496;2023-01-13T07:21:48;11.82;;;7.93;;
35887;SDS011;21990;42.540;23.496;2023-01-13T07:24:15;14.13;;;8.45;;
35887;SDS011;21990;42.540;23.496;2023-01-13T07:26:40;15.05;;;8.45;;
35887;SDS011;21990;42.540;23.496;2023-01-13T07:29:06;21.52;;;13.23;;
35887;SDS011;21990;42.540;23.496;2023-01-13T07:31:31;14.60;;;8.70;;
35887;SDS011;21990;42.540;23.496;2023-01-13T07:33:57;30.80;;;18.25;;
35887;SDS011;21990;42.540;23.496;2023-01-13T07:36:22;20.08;;;10.90;;
35887;SDS011;21990;42.540;23.496;2023-01-13T07:38:48;13.82;;;8.18;;
35887;SDS011;21990;42.540;23.496;2023-01-13T07:41:13;27.58;;;16.30;;
35887;SDS011;21990;42.540;23.496;2023-01-13T07:43:58;20.48;;;12.55;;
35887;SDS011;21990;42.540;23.496;2023-01-13T07:46:24;18.23;;;9.98;;
35887;SDS011;21990;42.540;23.496;2023-01-13T07:48:50;15.02;;;9.25;;
35887;SDS011;21990;42.540;23.496;2023-01-13T07:51:16;17.38;;;9.07;;
35887;SDS011;21990;42.540;23.496;2023-01-13T07:53:41;15.82;;;9.27;;
35887;SDS011;21990;42.540;23.496;2023-01-13T07:56:07;14.52;;;8.70;;
35887;SDS011;21990;42.540;23.496;2023-01-13T07:58:33;15.13;;;8.93;;
35887;SDS011;21990;42.540;23.496;2023-01-13T08:01:05;14.95;;;9.52;;
35887;SDS011;21990;42.540;23.496;2023-01-13T08:03:36;17.20;;;9.27;;
35887;SDS011;21990;42.540;23.496;2023-01-13T08:06:02;23.80;;;9.27;;
35887;SDS011;21990;42.540;23.496;2023-01-13T08:08:28;38.60;;;17.63;;
35887;SDS011;21990;42.540;23.496;2023-01-13T08:10:57;17.42;;;8.80;;
35887;SDS011;21990;42.540;23.496;2023-01-13T08:13:24;15.80;;;8.75;;
35887;SDS011;21990;42.540;23.496;2023-01-13T08:15:53;12.32;;;8.00;;
35887;SDS011;21990;42.540;23.496;2023-01-13T08:18:24;9.07;;;6.50;;
35887;SDS011;21990;42.540;23.496;2023-01-13T08:20:50;10.25;;;6.85;;
35887;SDS011;21990;42.540;23.496;2023-01-13T08:23:22;11.50;;;6.75;;
35887;SDS011;21990;42.540;23.496;2023-01-13T08:25:47;13.52;;;8.27;;
35887;SDS011;21990;42.540;23.496;2023-01-13T08:28:14;6.70;;;4.40;;
35887;SDS011;21990;42.540;23.496;2023-01-13T08:30:40;4.47;;;3.22;;
35887;SDS011;21990;42.540;23.496;2023-01-13T08:33:07;6.55;;;3.90;;
35887;SDS011;21990;42.540;23.496;2023-01-13T08:35:35;7.15;;;4.65;;
35887;SDS011;21990;42.540;23.496;2023-01-13T08:38:02;7.57;;;4.50;;
35887;SDS011;21990;42.540;23.496;2023-01-13T08:40:28;5.63;;;3.78;;
35887;SDS011;21990;42.540;23.496;2023-01-13T08:42:56;6.80;;;4.07;;
35887;SDS011;21990;42.540;23.496;2023-01-13T08:45:23;5.95;;;3.90;;
35887;SDS011;21990;42.540;23.496;2023-01-13T08:47:48;6.30;;;4.28;;
35887;SDS011;21990;42.540;23.496;2023-01-13T08:50:14;8.00;;;3.42;;
35887;SDS011;21990;42.540;23.496;2023-01-13T08:52:40;5.55;;;3.17;;
35887;SDS011;21990;42.540;23.496;2023-01-13T08:55:06;4.43;;;2.90;;
35887;SDS011;21990;42.540;23.496;2023-01-13T08:57:32;4.40;;;2.80;;
35887;SDS011;21990;42.540;23.496;2023-01-13T08:59:58;4.15;;;3.05;;
35887;SDS011;21990;42.540;23.496;2023-01-13T09:02:23;4.22;;;2.95;;
35887;SDS011;21990;42.540;23.496;2023-01-13T09:04:50;6.55;;;2.70;;
35887;SDS011;21990;42.540;23.496;2023-01-13T09:07:16;4.82;;;3.08;;
35887;SDS011;21990;42.540;23.496;2023-01-13T09:09:42;3.90;;;2.75;;
35887;SDS011;21990;42.540;23.496;2023-01-13T09:12:11;5.28;;;3.10;;
35887;SDS011;21990;42.540;23.496;2023-01-13T09:15:09;4.47;;;2.53;;
35887;SDS011;21990;42.540;23.496;2023-01-13T09:17:35;3.95;;;2.90;;
35887;SDS011;21990;42.540;23.496;2023-01-13T09:20:00;3.90;;;2.85;;
35887;SDS011;21990;42.540;23.496;2023-01-13T09:22:26;4.45;;;2.95;;
35887;SDS011;21990;42.540;23.496;2023-01-13T09:24:52;5.85;;;2.42;;
35887;SDS011;21990;42.540;23.496;2023-01-13T09:27:19;3.72;;;2.63;;
35887;SDS011;21990;42.540;23.496;2023-01-13T09:29:44;6.03;;;3.53;;
35887;SDS011;21990;42.540;23.496;2023-01-13T09:32:10;5.63;;;2.67;;
35887;SDS011;21990;42.540;23.496;2023-01-13T09:34:38;4.20;;;2.85;;
35887;SDS011;21990;42.540;23.496;2023-01-13T09:37:22;4.85;;;2.30;;
35887;SDS011;21990;42.540;23.496;2023-01-13T09:39:48;8.50;;;5.03;;
35887;SDS011;21990;42.540;23.496;2023-01-13T09:42:28;5.32;;;3.70;;
35887;SDS011;21990;42.540;23.496;2023-01-13T09:45:24;5.35;;;3.30;;
35887;SDS011;21990;42.540;23.496;2023-01-13T09:51:15;5.38;;;3.15;;
35887;SDS011;21990;42.540;23.496;2023-01-13T09:53:59;4.75;;;3.47;;
35887;SDS011;21990;42.540;23.496;2023-01-13T09:56:31;4.85;;;3.25;;
35887;SDS011;21990;42.540;23.496;2023-01-13T09:58:56;5.47;;;3.92;;
35887;SDS011;21990;42.540;23.496;2023-01-13T10:03:56;16.63;;;8.60;;
35887;SDS011;21990;42.540;23.496;2023-01-13T10:06:32;29.35;;;14.52;;
35887;SDS011;21990;42.540;23.496;2023-01-13T10:09:03;9.15;;;5.93;;
35887;SDS011;21990;42.540;23.496;2023-01-13T10:11:31;18.55;;;10.02;;
35887;SDS011;21990;42.540;23.496;2023-01-13T10:25:12;12.15;;;5.20;;
35887;SDS011;21990;42.540;23.496;2023-01-13T10:27:42;14.75;;;5.93;;
35887;SDS011;21990;42.540;23.496;2023-01-13T10:33:27;14.48;;;8.15;;
35887;SDS011;21990;42.540;23.496;2023-01-13T10:35:52;16.58;;;10.65;;
35887;SDS011;21990;42.540;23.496;2023-01-13T10:38:36;16.02;;;7.38;;
35887;SDS011;21990;42.540;23.496;2023-01-13T10:44:01;17.60;;;9.00;;
35887;SDS011;21990;42.540;23.496;2023-01-13T10:46:35;36.30;;;15.52;;
35887;SDS011;21990;42.540;23.496;2023-01-13T10:49:27;53.38;;;26.27;;
35887;SDS011;21990;42.540;23.496;2023-01-13T10:52:01;27.17;;;15.32;;
35887;SDS011;21990;42.540;23.496;2023-01-13T10:54:51;40.85;;;23.05;;
35887;SDS011;21990;42.540;23.496;2023-01-13T10:57:20;41.55;;;22.80;;
35887;SDS011;21990;42.540;23.496;2023-01-13T10:59:52;32.30;;;19.92;;
35887;SDS011;21990;42.540;23.496;2023-01-13T11:02:36;18.67;;;10.27;;
35887;SDS011;21990;42.540;23.496;2023-01-13T11:05:20;26.42;;;15.20;;
35887;SDS011;21990;42.540;23.496;2023-01-13T11:07:49;112.35;;;48.28;;
35887;SDS011;21990;42.540;23.496;2023-01-13T11:15:49;143.95;;;63.10;;
35887;SDS011;21990;42.540;23.496;2023-01-13T11:18:23;131.32;;;59.17;;
35887;SDS011;21990;42.540;23.496;2023-01-13T11:20:59;56.95;;;29.33;;
35887;SDS011;21990;42.540;23.496;2023-01-13T11:23:34;81.43;;;42.28;;
35887;SDS011;21990;42.540;23.496;2023-01-13T11:26:17;36.30;;;21.08;;
35887;SDS011;21990;42.540;23.496;2023-01-13T11:29:01;27.80;;;14.65;;
35887;SDS011;21990;42.540;23.496;2023-01-13T11:31:38;31.13;;;15.80;;
35887;SDS011;21990;42.540;23.496;2023-01-13T11:34:19;34.97;;;18.15;;
35887;SDS011;21990;42.540;23.496;2023-01-13T11:47:53;28.38;;;12.15;;
35887;SDS011;21990;42.540;23.496;2023-01-13T11:56:18;29.17;;;11.23;;
35887;SDS011;21990;42.540;23.496;2023-01-13T12:01:48;207.45;;;93.43;;
35887;SDS011;21990;42.540;23.496;2023-01-13T12:04:34;103.40;;;50.03;;
35887;SDS011;21990;42.540;23.496;2023-01-13T12:12:39;137.70;;;63.92;;
35887;SDS011;21990;42.540;23.496;2023-01-13T12:17:38;54.22;;;34.05;;
35887;SDS011;21990;42.540;23.496;2023-01-13T12:26:19;45.47;;;24.02;;
35887;SDS011;21990;42.540;23.496;2023-01-13T12:31:13;26.75;;;17.25;;
35887;SDS011;21990;42.540;23.496;2023-01-13T12:45:21;16.13;;;9.00;;
35887;SDS011;21990;42.540;23.496;2023-01-13T12:47:49;14.35;;;9.27;;
35887;SDS011;21990;42.540;23.496;2023-01-13T12:52:48;20.85;;;8.10;;
35887;SDS011;21990;42.540;23.496;2023-01-13T12:55:24;12.40;;;7.53;;
35887;SDS011;21990;42.540;23.496;2023-01-13T12:57:55;20.95;;;10.73;;
35887;SDS011;21990;42.540;23.496;2023-01-13T13:00:22;15.40;;;9.70;;
35887;SDS011;21990;42.540;23.496;2023-01-13T13:03:23;13.23;;;7.82;;
35887;SDS011;21990;42.540;23.496;2023-01-13T13:17:03;14.02;;;8.60;;
35887;SDS011;21990;42.540;23.496;2023-01-13T13:19:57;30.88;;;15.98;;
35887;SDS011;21990;42.540;23.496;2023-01-13T13:30:13;32.97;;;17.70;;
35887;SDS011;21990;42.540;23.496;2023-01-13T13:33:01;31.00;;;17.15;;
35887;SDS011;21990;42.540;23.496;2023-01-13T13:36:05;31.83;;;12.85;;
35887;SDS011;21990;42.540;23.496;2023-01-13T13:39:20;36.08;;;17.02;;
35887;SDS011;21990;42.540;23.496;2023-01-13T13:42:56;34.50;;;16.25;;
35887;SDS011;21990;42.540;23.496;2023-01-13T13:45:22;86.65;;;31.90;;
35887;SDS011;21990;42.540;23.496;2023-01-13T13:48:24;30.13;;;13.50;;
35887;SDS011;21990;42.540;23.496;2023-01-13T13:50:56;23.88;;;11.88;;
35887;SDS011;21990;42.540;23.496;2023-01-13T13:53:27;22.75;;;11.60;;
35887;SDS011;21990;42.540;23.496;2023-01-13T13:55:58;29.75;;;15.77;;
35887;SDS011;21990;42.540;23.496;2023-01-13T13:58:31;25.27;;;13.52;;
35887;SDS011;21990;42.540;23.496;2023-01-13T14:01:01;21.15;;;11.57;;
35887;SDS011;21990;42.540;23.496;2023-01-13T14:03:44;29.50;;;12.07;;
35887;SDS011;21990;42.540;23.496;2023-01-13T14:06:22;23.15;;;8.82;;
35887;SDS011;21990;42.540;23.496;2023-01-13T14:08:57;15.27;;;8.70;;
35887;SDS011;21990;42.540;23.496;2023-01-13T14:11:27;18.23;;;6.45;;
35887;SDS011;21990;42.540;23.496;2023-01-13T14:16:28;15.93;;;6.28;;
35887;SDS011;21990;42.540;23.496;2023-01-13T14:19:01;14.55;;;8.85;;
35887;SDS011;21990;42.540;23.496;2023-01-13T14:21:29;18.90;;;10.35;;
35887;SDS011;21990;42.540;23.496;2023-01-13T14:24:08;21.52;;;12.85;;
35887;SDS011;21990;42.540;23.496;2023-01-13T14:26:39;21.88;;;13.07;;
35887;SDS011;21990;42.540;23.496;2023-01-13T14:29:05;30.35;;;16.00;;
35887;SDS011;21990;42.540;23.496;2023-01-13T14:31:37;13.25;;;8.65;;
35887;SDS011;21990;42.540;23.496;2023-01-13T14:34:04;19.20;;;9.90;;
35887;SDS011;21990;42.540;23.496;2023-01-13T14:43:59;25.95;;;16.50;;
35887;SDS011;21990;42.540;23.496;2023-01-13T14:46:37;20.80;;;13.43;;
35887;SDS011;21990;42.540;23.496;2023-01-13T14:54:47;19.48;;;11.23;;
35887;SDS011;21990;42.540;23.496;2023-01-13T14:57:39;13.07;;;8.80;;
35887;SDS011;21990;42.540;23.496;2023-01-13T15:02:46;15.93;;;8.90;;
35887;SDS011;21990;42.540;23.496;2023-01-13T15:12:58;18.67;;;11.40;;
35887;SDS011;21990;42.540;23.496;2023-01-13T15:15:32;11.70;;;6.38;;
35887;SDS011;21990;42.540;23.496;2023-01-13T15:18:01;8.45;;;6.15;;
35887;SDS011;21990;42.540;23.496;2023-01-13T15:20:37;9.13;;;5.38;;
35887;SDS011;21990;42.540;23.496;2023-01-13T15:23:03;6.95;;;4.63;;
35887;SDS011;21990;42.540;23.496;2023-01-13T15:25:32;8.65;;;5.72;;
35887;SDS011;21990;42.540;23.496;2023-01-13T15:27:58;14.50;;;8.20;;
35887;SDS011;21990;42.540;23.496;2023-01-13T15:30:25;23.63;;;10.20;;
35887;SDS011;21990;42.540;23.496;2023-01-13T15:32:52;16.88;;;6.93;;
35887;SDS011;21990;42.540;23.496;2023-01-13T15:35:19;11.10;;;6.47;;
35887;SDS011;21990;42.540;23.496;2023-01-13T15:37:45;8.93;;;4.82;;
35887;SDS011;21990;42.540;23.496;2023-01-13T15:40:17;9.75;;;5.35;;
35887;SDS011;21990;42.540;23.496;2023-01-13T15:42:44;10.52;;;6.38;;
35887;SDS011;21990;42.540;23.496;2023-01-13T15:45:29;26.58;;;13.85;;
35887;SDS011;21990;42.540;23.496;2023-01-13T15:48:14;38.85;;;19.98;;
35887;SDS011;21990;42.540;23.496;2023-01-13T15:50:40;12.88;;;8.20;;
35887;SDS011;21990;42.540;23.496;2023-01-13T15:53:05;16.77;;;11.02;;
35887;SDS011;21990;42.540;23.496;2023-01-13T15:55:31;24.63;;;15.05;;
35887;SDS011;21990;42.540;23.496;2023-01-13T15:57:59;24.90;;;12.73;;
35887;SDS011;21990;42.540;23.496;2023-01-13T16:00:26;31.35;;;16.42;;
35887;SDS011;21990;42.540;23.496;2023-01-13T16:03:03;28.85;;;14.60;;
35887;SDS011;21990;42.540;23.496;2023-01-13T16:05:32;18.65;;;8.70;;
35887;SDS011;21990;42.540;23.496;2023-01-13T16:07:59;106.03;;;46.13;;
35887;SDS011;21990;42.540;23.496;2023-01-13T16:10:25;122.30;;;50.53;;
35887;SDS011;21990;42.540;23.496;2023-01-13T16:12:52;86.03;;;35.10;;
35887;SDS011;21990;42.540;23.496;2023-01-13T16:15:20;44.00;;;18.15;;
35887;SDS011;21990;42.540;23.496;2023-01-13T16:17:54;8.18;;;4.93;;
35887;SDS011;21990;42.540;23.496;2023-01-13T16:20:22;11.35;;;3.85;;
35887;SDS011;21990;42.540;23.496;2023-01-13T16:22:47;5.53;;;3.50;;
35887;SDS011;21990;42.540;23.496;2023-01-13T16:25:17;8.07;;;4.13;;
35887;SDS011;21990;42.540;23.496;2023-01-13T16:27:43;7.82;;;4.18;;
35887;SDS011;21990;42.540;23.496;2023-01-13T16:32:52;8.38;;;4.50;;
35887;SDS011;21990;42.540;23.496;2023-01-13T16:35:19;10.20;;;5.93;;
35887;SDS011;21990;42.540;23.496;2023-01-13T16:37:45;17.40;;;7.10;;
35887;SDS011;21990;42.540;23.496;2023-01-13T16:42:49;15.40;;;5.47;;
35887;SDS011;21990;42.540;23.496;2023-01-13T16:45:16;9.32;;;5.25;;
35887;SDS011;21990;42.540;23.496;2023-01-13T16:47:42;6.35;;;4.72;;
35887;SDS011;21990;42.540;23.496;2023-01-13T16:50:53;12.80;;;4.45;;
35887;SDS011;21990;42.540;23.496;2023-01-13T16:53:02;8.85;;;3.85;;
35887;SDS011;21990;42.540;23.496;2023-01-13T16:55:28;13.05;;;9.45;;
35887;SDS011;21990;42.540;23.496;2023-01-13T16:57:54;12.63;;;7.32;;
35887;SDS011;21990;42.540;23.496;2023-01-13T17:00:20;14.45;;;6.90;;
35887;SDS011;21990;42.540;23.496;2023-01-13T17:02:45;16.95;;;6.97;;
35887;SDS011;21990;42.540;23.496;2023-01-13T17:05:12;12.63;;;5.28;;
35887;SDS011;21990;42.540;23.496;2023-01-13T17:07:39;10.90;;;5.25;;
35887;SDS011;21990;42.540;23.496;2023-01-13T17:10:16;7.07;;;4.82;;
35887;SDS011;21990;42.540;23.496;2023-01-13T17:12:44;10.52;;;5.07;;
35887;SDS011;21990;42.540;23.496;2023-01-13T17:15:11;7.32;;;4.30;;
35887;SDS011;21990;42.540;23.496;2023-01-13T17:17:39;12.45;;;5.25;;
35887;SDS011;21990;42.540;23.496;2023-01-13T17:20:05;14.52;;;4.88;;
35887;SDS011;21990;42.540;23.496;2023-01-13T17:22:33;6.30;;;4.50;;
35887;SDS011;21990;42.540;23.496;2023-01-13T17:24:58;10.75;;;5.53;;
35887;SDS011;21990;42.540;23.496;2023-01-13T17:27:24;9.60;;;4.80;;
35887;SDS011;21990;42.540;23.496;2023-01-13T17:29:50;12.07;;;5.55;;
35887;SDS011;21990;42.540;23.496;2023-01-13T17:32:16;14.88;;;7.88;;
35887;SDS011;21990;42.540;23.496;2023-01-13T17:34:43;14.52;;;7.72;;
35887;SDS011;21990;42.540;23.496;2023-01-13T17:37:09;27.10;;;11.18;;
35887;SDS011;21990;42.540;23.496;2023-01-13T17:39:38;28.30;;;15.63;;